createdAt,value
2022-08-10T00:01:54.028Z,21.02
2022-08-10T00:04:22.947Z,20.98
2022-08-10T00:06:53.334Z,20.97
2022-08-10T00:09:20.618Z,20.93
2022-08-10T00:11:47.163Z,20.92
2022-08-10T00:14:13.638Z,20.89
2022-08-10T00:16:40.165Z,20.87
2022-08-10T00:19:06.624Z,20.85
2022-08-10T00:21:33.145Z,20.82
2022-08-10T00:23:59.571Z,20.79
2022-08-10T00:26:25.990Z,20.77
2022-08-10T00:28:52.576Z,20.75
2022-08-10T00:31:19.050Z,20.72
2022-08-10T00:33:45.488Z,20.69
2022-08-10T00:36:12.162Z,20.67
2022-08-10T00:38:38.620Z,20.63
2022-08-10T00:41:05.305Z,20.60
2022-08-10T00:43:31.796Z,20.57
2022-08-10T00:45:58.823Z,20.54
2022-08-10T00:48:30.714Z,20.51
2022-08-10T00:51:00.197Z,20.49
2022-08-10T00:53:30.079Z,20.45
2022-08-10T00:56:41.639Z,20.41
2022-08-10T00:58:44.349Z,20.37
2022-08-10T01:01:11.638Z,20.32
2022-08-10T01:04:39.932Z,20.29
2022-08-10T01:07:12.875Z,20.27
2022-08-10T01:10:07.110Z,20.22
2022-08-10T01:12:41.563Z,20.19
2022-08-10T01:15:29.345Z,20.14
2022-08-10T01:18:04.593Z,20.14
2022-08-10T01:20:49.147Z,20.13
2022-08-10T01:23:40.644Z,20.11
2022-08-10T01:26:44.952Z,20.10
2022-08-10T01:29:37.009Z,20.10
2022-08-10T01:32:07.295Z,20.08
2022-08-10T01:35:05.960Z,20.07
2022-08-10T01:37:34.335Z,20.09
2022-08-10T01:40:04.510Z,20.06
2022-08-10T01:42:36.372Z,20.03
2022-08-10T01:45:07.291Z,20.02
2022-08-10T01:47:56.375Z,19.98
2022-08-10T01:50:32.670Z,19.98
2022-08-10T01:53:09.298Z,19.97
2022-08-10T01:55:38.207Z,19.95
2022-08-10T01:58:07.552Z,19.95
2022-08-10T02:00:37.751Z,19.94
2022-08-10T02:03:07.539Z,19.93
2022-08-10T02:05:36.606Z,19.91
2022-08-10T02:08:06.064Z,19.90
2022-08-10T02:10:34.854Z,19.87
2022-08-10T02:13:02.915Z,19.86
2022-08-10T02:15:33.488Z,19.85
2022-08-10T02:18:03.080Z,19.83
2022-08-10T02:20:43.810Z,19.83
2022-08-10T02:23:22.470Z,19.81
2022-08-10T02:25:51.563Z,19.79
2022-08-10T02:28:29.954Z,19.76
2022-08-10T02:31:06.659Z,19.74
2022-08-10T02:33:37.291Z,19.72
2022-08-10T02:36:07.129Z,19.70
2022-08-10T02:38:59.000Z,19.68
2022-08-10T02:45:01.996Z,19.64
2022-08-10T02:45:24.427Z,19.64
2022-08-10T02:48:03.084Z,19.59
2022-08-10T02:50:35.503Z,19.56
2022-08-10T02:53:54.900Z,19.51
2022-08-10T02:56:32.751Z,19.49
2022-08-10T02:59:22.851Z,19.47
2022-08-10T03:01:52.775Z,19.43
2022-08-10T03:04:55.743Z,19.41
2022-08-10T03:07:42.793Z,19.39
2022-08-10T03:10:13.183Z,19.37
2022-08-10T03:12:43.210Z,19.35
2022-08-10T03:15:15.548Z,19.32
2022-08-10T03:17:57.794Z,19.30
2022-08-10T03:20:46.345Z,19.28
2022-08-10T03:23:23.319Z,19.28
2022-08-10T03:25:54.033Z,19.25
2022-08-10T03:28:26.797Z,19.26
2022-08-10T03:30:54.586Z,19.23
2022-08-10T03:33:22.641Z,19.21
2022-08-10T03:36:42.778Z,19.20
2022-08-10T03:38:37.214Z,19.18
2022-08-10T03:41:06.151Z,19.17
2022-08-10T03:43:34.085Z,19.16
2022-08-10T03:46:04.721Z,19.16
2022-08-10T03:48:48.750Z,19.15
2022-08-10T03:51:17.450Z,19.12
2022-08-10T03:54:05.459Z,19.12
2022-08-10T03:56:33.030Z,19.13
2022-08-10T03:59:01.213Z,19.12
2022-08-10T04:02:42.001Z,19.12
2022-08-10T04:04:20.997Z,19.12
2022-08-10T04:06:54.522Z,19.12
2022-08-10T04:09:22.815Z,19.12
2022-08-10T04:11:49.618Z,19.13
2022-08-10T04:14:44.950Z,19.15
2022-08-10T04:17:02.751Z,19.14
2022-08-10T04:19:34.346Z,19.15
2022-08-10T04:22:08.661Z,19.17
2022-08-10T04:24:37.983Z,19.18
2022-08-10T04:27:04.742Z,19.18
2022-08-10T04:29:31.224Z,19.18
2022-08-10T04:31:57.659Z,19.19
2022-08-10T04:34:26.949Z,19.21
2022-08-10T04:36:57.132Z,19.23
2022-08-10T04:39:24.029Z,19.24
2022-08-10T04:41:50.809Z,19.25
2022-08-10T04:44:17.239Z,19.27
2022-08-10T04:46:57.883Z,19.28
2022-08-10T04:49:53.898Z,19.30
2022-08-10T04:52:13.396Z,19.30
2022-08-10T04:54:39.957Z,19.31
2022-08-10T04:57:06.550Z,19.32
2022-08-10T04:59:33.236Z,19.33
2022-08-10T05:02:22.567Z,19.35
2022-08-10T05:04:46.190Z,19.41
2022-08-10T05:07:16.259Z,19.44
2022-08-10T05:10:03.881Z,19.45
2022-08-10T05:12:35.991Z,19.45
2022-08-10T05:15:05.179Z,19.47
2022-08-10T05:17:31.635Z,19.49
2022-08-10T05:20:04.201Z,19.51
2022-08-10T05:22:37.217Z,19.54
2022-08-10T05:25:06.001Z,19.58
2022-08-10T05:27:33.583Z,19.61
2022-08-10T05:30:01.340Z,19.66
2022-08-10T05:32:29.809Z,19.72
2022-08-10T05:34:56.255Z,19.77
2022-08-10T05:38:12.262Z,19.83
2022-08-10T05:40:10.970Z,19.90
2022-08-10T05:42:38.138Z,19.95
2022-08-10T05:45:05.004Z,20.01
2022-08-10T05:48:57.921Z,20.06
2022-08-10T05:50:22.467Z,20.14
2022-08-10T05:52:49.415Z,20.20
2022-08-10T05:55:17.354Z,20.24
2022-08-10T05:57:45.319Z,20.29
2022-08-10T06:00:39.747Z,20.33
2022-08-10T06:03:04.563Z,20.41
2022-08-10T06:05:34.289Z,20.45
2022-08-10T06:08:06.075Z,20.51
2022-08-10T06:10:35.722Z,20.55
2022-08-10T06:13:30.280Z,20.60
2022-08-10T06:16:00.633Z,20.66
2022-08-10T06:18:27.851Z,20.70
2022-08-10T06:20:55.103Z,20.75
2022-08-10T06:23:23.225Z,20.77
2022-08-10T06:26:09.589Z,20.82
2022-08-10T06:28:40.003Z,20.89
2022-08-10T06:31:07.999Z,20.93
2022-08-10T06:33:37.410Z,20.98
2022-08-10T06:38:03.267Z,21.06
2022-08-10T06:40:35.536Z,21.12
2022-08-10T06:43:06.530Z,21.18
2022-08-10T06:46:07.895Z,21.29
2022-08-10T06:48:46.997Z,21.39
2022-08-10T06:51:18.102Z,21.51
2022-08-10T06:53:52.915Z,21.60
2022-08-10T06:56:37.564Z,21.70
2022-08-10T06:59:26.053Z,21.84
2022-08-10T07:02:05.544Z,21.95
2022-08-10T07:04:45.710Z,22.05
2022-08-10T07:07:18.330Z,22.13
2022-08-10T07:09:45.840Z,22.20
2022-08-10T07:12:14.774Z,22.29
2022-08-10T07:14:44.582Z,22.38
2022-08-10T07:17:15.140Z,22.45
2022-08-10T07:19:50.493Z,22.54
2022-08-10T07:23:01.821Z,22.64
2022-08-10T07:25:09.314Z,22.76
2022-08-10T07:28:00.735Z,22.87
2022-08-10T07:30:28.343Z,22.99
2022-08-10T07:32:56.065Z,23.10
2022-08-10T07:35:24.153Z,23.20
2022-08-10T07:37:52.795Z,23.31
2022-08-10T07:40:21.174Z,23.41
2022-08-10T07:42:51.099Z,23.53
2022-08-10T07:45:17.827Z,23.64
2022-08-10T07:48:03.742Z,23.78
2022-08-10T07:50:36.267Z,23.89
2022-08-10T07:53:04.422Z,24.01
2022-08-10T07:56:03.837Z,24.14
2022-08-10T07:58:22.260Z,24.24
2022-08-10T08:00:52.105Z,24.35
2022-08-10T08:03:24.937Z,24.44
2022-08-10T08:06:03.051Z,24.52
2022-08-10T08:08:33.659Z,24.60
2022-08-10T08:11:01.517Z,24.66
2022-08-10T08:13:29.505Z,24.72
2022-08-10T08:16:17.532Z,24.77
2022-08-10T08:19:03.858Z,24.86
2022-08-10T08:24:07.377Z,24.94
2022-08-10T08:24:32.479Z,25.05
2022-08-10T08:27:02.993Z,25.14
2022-08-10T08:29:33.157Z,25.25
2022-08-10T08:32:03.394Z,25.35
2022-08-10T08:34:36.938Z,25.48
2022-08-10T08:37:04.599Z,25.58
2022-08-10T08:39:36.049Z,25.67
2022-08-10T08:42:53.783Z,25.80
2022-08-10T08:45:23.758Z,25.93
2022-08-10T08:48:11.342Z,26.04
2022-08-10T08:52:06.368Z,26.15
2022-08-10T08:54:23.674Z,26.25
2022-08-10T08:56:58.530Z,26.35
2022-08-10T08:59:37.650Z,26.42
2022-08-10T09:02:22.228Z,26.52
2022-08-10T09:04:54.764Z,26.62
2022-08-10T09:08:00.103Z,26.71
2022-08-10T09:10:37.891Z,26.86
2022-08-10T09:13:42.425Z,26.98
2022-08-10T09:16:47.358Z,27.08
2022-08-10T09:19:36.503Z,27.18
2022-08-10T09:22:24.796Z,27.30
2022-08-10T09:25:08.690Z,27.39
2022-08-10T09:27:53.112Z,27.49
2022-08-10T09:30:32.356Z,27.60
2022-08-10T09:36:25.556Z,27.70
2022-08-10T09:36:29.081Z,27.82
2022-08-10T09:39:07.353Z,27.94
2022-08-10T09:41:56.220Z,28.02
2022-08-10T09:44:57.966Z,28.13
2022-08-10T09:48:00.789Z,28.21
2022-08-10T09:50:23.004Z,28.31
2022-08-10T09:53:10.987Z,28.36
2022-08-10T09:56:17.304Z,28.41
2022-08-10T09:59:59.344Z,28.49
2022-08-10T10:02:20.920Z,28.56
2022-08-10T10:04:58.770Z,28.61
2022-08-10T10:07:29.592Z,28.68
2022-08-10T10:10:10.701Z,28.70
2022-08-10T10:12:52.972Z,28.77
2022-08-10T10:15:35.219Z,28.84
2022-08-10T10:18:07.562Z,28.90
2022-08-10T10:20:52.552Z,28.95
2022-08-10T10:24:21.850Z,29.03
2022-08-10T10:27:16.094Z,29.10
2022-08-10T10:30:05.044Z,29.14
2022-08-10T10:32:36.934Z,29.20
2022-08-10T10:35:15.133Z,29.21
2022-08-10T10:38:10.391Z,29.26
2022-08-10T10:40:35.182Z,29.31
2022-08-10T10:43:21.794Z,29.37
2022-08-10T10:46:23.041Z,29.41
2022-08-10T10:48:59.484Z,29.43
2022-08-10T10:51:33.072Z,29.48
2022-08-10T10:54:08.587Z,29.52
2022-08-10T10:56:53.824Z,29.60
2022-08-10T10:59:55.100Z,29.68
2022-08-10T11:02:50.477Z,29.78
2022-08-10T11:05:41.788Z,29.85
2022-08-10T11:08:19.693Z,29.90
2022-08-10T11:11:01.357Z,29.97
2022-08-10T11:14:25.831Z,30.07
2022-08-10T11:17:00.499Z,30.16
2022-08-10T11:20:02.952Z,30.26
2022-08-10T11:22:58.687Z,30.34
2022-08-10T11:25:36.305Z,30.40
2022-08-10T11:28:20.462Z,30.45
2022-08-10T11:31:04.848Z,30.48
2022-08-10T11:34:11.275Z,30.52
2022-08-10T11:36:55.585Z,30.58
2022-08-10T11:39:50.224Z,30.63
2022-08-10T11:42:28.919Z,30.68
2022-08-10T11:45:04.587Z,30.75
2022-08-10T11:47:53.989Z,30.78
2022-08-10T11:50:39.496Z,30.84
2022-08-10T11:53:23.327Z,30.89
2022-08-10T11:55:55.447Z,30.89
2022-08-10T11:58:42.587Z,30.84
2022-08-10T12:01:11.763Z,30.83
2022-08-10T12:03:41.387Z,30.78
2022-08-10T12:06:13.545Z,30.76
2022-08-10T12:10:11.451Z,30.76
2022-08-10T12:11:34.071Z,30.76
2022-08-10T12:14:23.977Z,30.83
2022-08-10T12:17:16.843Z,30.90
2022-08-10T12:19:59.091Z,30.93
2022-08-10T12:22:57.038Z,30.97
2022-08-10T12:25:56.616Z,31.01
2022-08-10T12:29:02.841Z,31.05
2022-08-10T12:31:41.232Z,31.11
2022-08-10T12:34:26.314Z,31.14
2022-08-10T12:37:11.672Z,31.17
2022-08-10T12:40:17.529Z,31.19
2022-08-10T12:43:13.051Z,31.23
2022-08-10T12:45:51.365Z,31.27
2022-08-10T12:48:41.675Z,31.34
2022-08-10T12:51:18.623Z,31.37
2022-08-10T12:54:09.383Z,31.42
2022-08-10T12:56:42.409Z,31.45
2022-08-10T12:59:14.407Z,31.51
2022-08-10T13:02:09.639Z,31.53
2022-08-10T13:04:33.374Z,31.61
2022-08-10T13:07:01.391Z,31.66
2022-08-10T13:09:29.064Z,31.71
2022-08-10T13:12:38.645Z,31.80
2022-08-10T13:14:53.463Z,31.88
2022-08-10T13:17:42.853Z,31.92
2022-08-10T13:20:20.633Z,31.91
2022-08-10T13:22:49.621Z,31.83
2022-08-10T13:25:22.258Z,31.76
2022-08-10T13:28:02.583Z,31.69
2022-08-10T13:30:38.265Z,31.62
2022-08-10T13:34:40.548Z,31.59
2022-08-10T13:36:14.492Z,31.55
2022-08-10T13:38:43.846Z,31.54
2022-08-10T13:41:11.424Z,31.54
2022-08-10T13:43:50.450Z,31.56
2022-08-10T13:46:22.439Z,31.59
2022-08-10T13:48:53.543Z,31.63
2022-08-10T13:51:54.500Z,31.68
2022-08-10T13:54:16.769Z,31.71
2022-08-10T13:56:46.513Z,31.73
2022-08-10T13:59:16.047Z,31.73
2022-08-10T14:01:49.424Z,31.73
2022-08-10T14:04:29.209Z,31.71
2022-08-10T14:06:59.523Z,31.71
2022-08-10T14:09:32.372Z,31.75
2022-08-10T14:11:59.532Z,31.77
2022-08-10T14:14:28.095Z,31.78
2022-08-10T14:16:55.959Z,31.80
2022-08-10T14:19:26.363Z,31.81
2022-08-10T14:21:54.698Z,31.83
2022-08-10T14:24:26.488Z,31.86
2022-08-10T14:27:11.687Z,31.89
2022-08-10T14:29:42.867Z,31.91
2022-08-10T14:32:11.168Z,31.92
2022-08-10T14:36:15.458Z,31.97
2022-08-10T14:37:38.790Z,32.04
2022-08-10T14:40:11.637Z,32.11
2022-08-10T14:42:49.137Z,32.18
2022-08-10T14:45:24.702Z,32.20
2022-08-10T14:48:03.650Z,32.20
2022-08-10T14:50:33.710Z,32.19
2022-08-10T14:53:16.180Z,32.18
2022-08-10T14:55:59.395Z,32.17
2022-08-10T14:58:59.049Z,32.17
2022-08-10T15:02:00.265Z,32.16
2022-08-10T15:04:24.718Z,32.16
2022-08-10T15:07:01.290Z,32.16
2022-08-10T15:10:00.634Z,32.15
2022-08-10T15:12:25.021Z,32.15
2022-08-10T15:14:58.484Z,32.18
2022-08-10T15:17:30.284Z,32.22
2022-08-10T15:20:14.105Z,32.26
2022-08-10T15:22:47.269Z,32.32
2022-08-10T15:25:24.695Z,32.39
2022-08-10T15:28:11.240Z,32.47
2022-08-10T15:30:43.809Z,32.55
2022-08-10T15:34:02.982Z,32.63
2022-08-10T15:36:43.170Z,32.69
2022-08-10T15:40:21.920Z,32.72
2022-08-10T15:42:08.411Z,32.72
2022-08-10T15:44:40.109Z,32.69
2022-08-10T15:47:15.265Z,32.69
2022-08-10T15:49:51.860Z,32.68
2022-08-10T15:52:39.183Z,32.70
2022-08-10T15:55:44.248Z,32.74
2022-08-10T15:58:12.941Z,32.79
2022-08-10T16:01:02.147Z,32.82
2022-08-10T16:03:42.520Z,32.86
2022-08-10T16:06:13.325Z,32.89
2022-08-10T16:08:56.178Z,32.98
2022-08-10T16:11:46.674Z,33.07
2022-08-10T16:14:21.257Z,33.18
2022-08-10T16:16:56.503Z,33.32
2022-08-10T16:19:26.720Z,33.47
2022-08-10T16:21:56.904Z,33.61
2022-08-10T16:24:24.821Z,33.76
2022-08-10T16:26:54.503Z,33.91
2022-08-10T16:29:27.401Z,34.05
2022-08-10T16:32:01.690Z,34.20
2022-08-10T16:34:41.444Z,34.35
2022-08-10T16:37:12.931Z,34.46
2022-08-10T16:39:57.732Z,34.60
2022-08-10T16:42:36.403Z,34.72
2022-08-10T16:45:07.715Z,34.79
2022-08-10T16:47:44.901Z,34.83
2022-08-10T16:50:14.276Z,34.82
2022-08-10T16:52:43.530Z,34.83
2022-08-10T16:55:17.208Z,34.87
2022-08-10T16:57:54.147Z,34.90
2022-08-10T17:00:22.707Z,34.91
2022-08-10T17:02:52.566Z,34.94
2022-08-10T17:06:09.878Z,34.97
2022-08-10T17:08:16.021Z,35.04
2022-08-10T17:10:43.644Z,35.07
2022-08-10T17:13:13.718Z,35.15
2022-08-10T17:15:56.002Z,35.26
2022-08-10T17:18:28.054Z,35.33
2022-08-10T17:21:06.213Z,35.43
2022-08-10T17:23:35.206Z,35.48
2022-08-10T17:26:08.560Z,35.56
2022-08-10T17:28:41.702Z,35.64
2022-08-10T17:31:54.429Z,35.72
2022-08-10T17:34:23.515Z,35.85
2022-08-10T17:36:57.012Z,35.92
2022-08-10T17:39:30.732Z,35.99
2022-08-10T17:42:01.244Z,36.03
2022-08-10T17:44:29.103Z,36.07
2022-08-10T17:46:56.039Z,36.10
2022-08-10T17:49:24.753Z,36.15
2022-08-10T17:51:54.015Z,36.19
2022-08-10T17:54:31.123Z,36.21
2022-08-10T17:57:01.582Z,36.21
2022-08-10T17:59:30.796Z,36.21
2022-08-10T18:02:12.553Z,36.21
2022-08-10T18:04:45.809Z,36.20
2022-08-10T18:07:13.673Z,36.20
2022-08-10T18:09:49.865Z,36.19
2022-08-10T18:12:29.125Z,36.17
2022-08-10T18:15:02.137Z,36.12
2022-08-10T18:17:39.481Z,36.09
2022-08-10T18:20:08.529Z,36.03
2022-08-10T18:22:42.810Z,35.97
2022-08-10T18:25:17.235Z,35.86
2022-08-10T18:28:01.523Z,35.76
2022-08-10T18:30:35.978Z,35.63
2022-08-10T18:33:09.120Z,35.44
2022-08-10T18:35:36.576Z,35.19
2022-08-10T18:38:04.780Z,34.91
2022-08-10T18:40:36.401Z,34.57
2022-08-10T18:44:04.709Z,34.24
2022-08-10T18:45:56.789Z,33.88
2022-08-10T18:48:33.087Z,33.57
2022-08-10T18:51:06.071Z,33.28
2022-08-10T18:53:47.911Z,32.99
2022-08-10T18:56:20.284Z,32.72
2022-08-10T18:59:08.639Z,32.45
2022-08-10T19:01:41.225Z,32.22
2022-08-10T19:04:20.037Z,31.98
2022-08-10T19:06:46.446Z,31.75
2022-08-10T19:09:47.042Z,31.56
2022-08-10T19:12:36.438Z,31.33
2022-08-10T19:15:10.058Z,31.14
2022-08-10T19:18:06.017Z,30.95
2022-08-10T19:20:55.741Z,30.79
2022-08-10T19:23:30.588Z,30.62
2022-08-10T19:26:44.106Z,30.45
2022-08-10T19:30:08.004Z,30.31
2022-08-10T19:32:10.993Z,30.15
2022-08-10T19:34:37.436Z,30.01
2022-08-10T19:37:15.721Z,29.89
2022-08-10T19:40:12.182Z,29.75
2022-08-10T19:42:49.582Z,29.62
2022-08-10T19:45:55.985Z,29.48
2022-08-10T19:48:29.859Z,29.36
2022-08-10T19:51:04.351Z,29.25
2022-08-10T19:53:50.971Z,29.14
2022-08-10T19:56:34.110Z,29.05
2022-08-10T19:59:07.371Z,28.96
2022-08-10T20:01:54.426Z,28.88
2022-08-10T20:04:41.291Z,28.80
2022-08-10T20:07:19.803Z,28.74
2022-08-10T20:10:00.469Z,28.66
2022-08-10T20:12:42.786Z,28.58
2022-08-10T20:15:42.204Z,28.49
2022-08-10T20:18:33.173Z,28.40
2022-08-10T20:21:08.143Z,28.32
2022-08-10T20:23:35.839Z,28.23
2022-08-10T20:26:14.854Z,28.14
2022-08-10T20:29:00.677Z,28.06
2022-08-10T20:31:37.886Z,27.98
2022-08-10T20:34:13.326Z,27.89
2022-08-10T20:37:05.539Z,27.82
2022-08-10T20:40:08.439Z,27.75
2022-08-10T20:43:02.770Z,27.66
2022-08-10T20:46:05.122Z,27.58
2022-08-10T20:48:40.453Z,27.51
2022-08-10T20:51:15.509Z,27.43
2022-08-10T20:53:48.815Z,27.35
2022-08-10T20:56:33.492Z,27.26
2022-08-10T20:59:37.293Z,27.15
2022-08-10T21:02:46.504Z,27.06
2022-08-10T21:05:15.330Z,26.97
2022-08-10T21:08:02.075Z,26.89
2022-08-10T21:10:48.628Z,26.80
2022-08-10T21:13:41.520Z,26.72
2022-08-10T21:16:10.733Z,26.65
2022-08-10T21:19:24.452Z,26.59
2022-08-10T21:22:08.326Z,26.54
2022-08-10T21:24:42.816Z,26.49
2022-08-10T21:27:42.353Z,26.45
2022-08-10T21:30:20.095Z,26.40
2022-08-10T21:33:15.959Z,26.35
2022-08-10T21:35:46.488Z,26.30
2022-08-10T21:38:43.720Z,26.24
2022-08-10T21:41:57.902Z,26.18
2022-08-10T21:45:08.021Z,26.11
2022-08-10T21:48:30.095Z,26.04
2022-08-10T21:51:24.739Z,25.98
2022-08-10T21:54:27.735Z,25.93
2022-08-10T22:00:38.064Z,25.75
2022-08-10T22:03:23.996Z,25.67
2022-08-10T22:06:13.074Z,25.57
2022-08-10T22:09:04.080Z,25.50
2022-08-10T22:11:55.139Z,25.44
2022-08-10T22:14:52.667Z,25.37
2022-08-10T22:18:04.477Z,25.31
2022-08-10T22:20:49.665Z,25.26
2022-08-10T22:23:51.757Z,25.20
2022-08-10T22:26:39.942Z,25.15
2022-08-10T22:29:54.099Z,25.10
2022-08-10T22:31:25.595Z,25.84
2022-08-10T22:33:24.224Z,25.05
2022-08-10T22:36:34.405Z,25.00
2022-08-10T22:40:10.945Z,24.93
2022-08-10T22:43:10.892Z,24.88
2022-08-10T22:46:07.208Z,24.84
2022-08-10T22:49:00.519Z,24.78
2022-08-10T22:51:33.264Z,24.73
2022-08-10T22:54:32.737Z,24.69
2022-08-10T22:57:19.728Z,24.64
2022-08-10T22:59:47.261Z,24.60
2022-08-10T23:02:29.483Z,24.58
2022-08-10T23:05:02.047Z,24.53
2022-08-10T23:07:31.953Z,24.51
2022-08-10T23:10:10.885Z,24.49
2022-08-10T23:12:59.283Z,24.47
2022-08-10T23:15:49.140Z,24.42
2022-08-10T23:18:46.018Z,24.40
2022-08-10T23:21:13.874Z,24.39
2022-08-10T23:23:42.210Z,24.36
2022-08-10T23:26:11.581Z,24.32
2022-08-10T23:29:04.227Z,24.28
2022-08-10T23:32:01.015Z,24.24
2022-08-10T23:34:19.718Z,24.22
2022-08-10T23:36:49.753Z,24.19
2022-08-10T23:39:24.384Z,24.17
2022-08-10T23:42:03.031Z,24.15
2022-08-10T23:44:35.888Z,24.10
2022-08-10T23:47:04.869Z,24.09
2022-08-10T23:49:37.184Z,24.08
2022-08-10T23:52:12.722Z,24.06
2022-08-10T23:54:46.047Z,24.05
2022-08-10T23:57:17.506Z,24.03
